sensor_id;sensor_type;location;lat;lon;timestamp;P1;durP1;ratioP1;P2;durP2;ratioP2
26600;SDS011;14241;49.260;10.496;2022-09-03T00:00:48;1.10;;;1.00;;
26600;SDS011;14241;49.260;10.496;2022-09-03T00:11:02;1.17;;;0.68;;
26600;SDS011;14241;49.260;10.496;2022-09-03T00:13:34;1.20;;;0.88;;
26600;SDS011;14241;49.260;10.496;2022-09-03T00:16:00;1.98;;;1.13;;
26600;SDS011;14241;49.260;10.496;2022-09-03T00:18:28;2.17;;;0.95;;
26600;SDS011;14241;49.260;10.496;2022-09-03T00:20:56;2.67;;;1.10;;
26600;SDS011;14241;49.260;10.496;2022-09-03T00:23:25;1.13;;;0.90;;
26600;SDS011;14241;49.260;10.496;2022-09-03T00:25:53;1.23;;;0.90;;
26600;SDS011;14241;49.260;10.496;2022-09-03T00:28:22;3.88;;;1.05;;
26600;SDS011;14241;49.260;10.496;2022-09-03T00:30:50;2.65;;;1.00;;
26600;SDS011;14241;49.260;10.496;2022-09-03T00:33:20;1.05;;;0.90;;
26600;SDS011;14241;49.260;10.496;2022-09-03T00:36:09;1.90;;;1.10;;
26600;SDS011;14241;49.260;10.496;2022-09-03T00:38:31;2.40;;;0.95;;
26600;SDS011;14241;49.260;10.496;2022-09-03T00:51:31;4.03;;;1.00;;
26600;SDS011;14241;49.260;10.496;2022-09-03T00:59:02;1.45;;;1.15;;
26600;SDS011;14241;49.260;10.496;2022-09-03T01:01:44;1.48;;;1.20;;
26600;SDS011;14241;49.260;10.496;2022-09-03T01:04:31;1.35;;;1.00;;
26600;SDS011;14241;49.260;10.496;2022-09-03T01:12:15;2.28;;;0.82;;
26600;SDS011;14241;49.260;10.496;2022-09-03T01:17:50;2.33;;;1.17;;
26600;SDS011;14241;49.260;10.496;2022-09-03T01:27:30;1.55;;;1.00;;
26600;SDS011;14241;49.260;10.496;2022-09-03T01:30:11;1.95;;;1.08;;
26600;SDS011;14241;49.260;10.496;2022-09-03T01:35:26;2.40;;;1.00;;
26600;SDS011;14241;49.260;10.496;2022-09-03T01:38:08;1.85;;;1.08;;
26600;SDS011;14241;49.260;10.496;2022-09-03T01:43:12;3.70;;;1.17;;
26600;SDS011;14241;49.260;10.496;2022-09-03T01:48:26;2.15;;;1.33;;
26600;SDS011;14241;49.260;10.496;2022-09-03T01:51:10;2.63;;;1.48;;
26600;SDS011;14241;49.260;10.496;2022-09-03T01:53:40;2.97;;;1.40;;
26600;SDS011;14241;49.260;10.496;2022-09-03T01:58:56;2.08;;;1.55;;
26600;SDS011;14241;49.260;10.496;2022-09-03T02:01:37;2.35;;;1.02;;
26600;SDS011;14241;49.260;10.496;2022-09-03T02:04:19;1.35;;;1.05;;
26600;SDS011;14241;49.260;10.496;2022-09-03T02:06:44;2.80;;;1.25;;
26600;SDS011;14241;49.260;10.496;2022-09-03T02:09:13;3.70;;;1.27;;
26600;SDS011;14241;49.260;10.496;2022-09-03T02:11:39;5.43;;;1.20;;
26600;SDS011;14241;49.260;10.496;2022-09-03T02:14:05;2.08;;;1.27;;
26600;SDS011;14241;49.260;10.496;2022-09-03T02:16:30;3.50;;;1.65;;
26600;SDS011;14241;49.260;10.496;2022-09-03T02:18:58;2.13;;;1.25;;
26600;SDS011;14241;49.260;10.496;2022-09-03T02:21:26;2.03;;;1.40;;
26600;SDS011;14241;49.260;10.496;2022-09-03T02:23:51;3.30;;;1.50;;
26600;SDS011;14241;49.260;10.496;2022-09-03T02:26:19;4.40;;;1.52;;
26600;SDS011;14241;49.260;10.496;2022-09-03T02:28:45;2.97;;;1.58;;
26600;SDS011;14241;49.260;10.496;2022-09-03T02:31:10;5.90;;;1.60;;
26600;SDS011;14241;49.260;10.496;2022-09-03T02:33:37;2.87;;;1.43;;
26600;SDS011;14241;49.260;10.496;2022-09-03T02:36:03;4.22;;;1.58;;
26600;SDS011;14241;49.260;10.496;2022-09-03T02:38:30;2.33;;;1.50;;
26600;SDS011;14241;49.260;10.496;2022-09-03T02:40:55;3.50;;;1.60;;
26600;SDS011;14241;49.260;10.496;2022-09-03T02:43:31;2.20;;;1.53;;
26600;SDS011;14241;49.260;10.496;2022-09-03T02:46:02;1.83;;;1.60;;
26600;SDS011;14241;49.260;10.496;2022-09-03T02:48:28;2.75;;;1.17;;
26600;SDS011;14241;49.260;10.496;2022-09-03T02:50:53;1.87;;;1.30;;
26600;SDS011;14241;49.260;10.496;2022-09-03T02:53:19;1.90;;;1.73;;
26600;SDS011;14241;49.260;10.496;2022-09-03T02:55:44;3.53;;;1.77;;
26600;SDS011;14241;49.260;10.496;2022-09-03T02:58:09;2.53;;;1.40;;
26600;SDS011;14241;49.260;10.496;2022-09-03T03:00:35;4.35;;;1.35;;
26600;SDS011;14241;49.260;10.496;2022-09-03T03:03:01;2.75;;;1.50;;
26600;SDS011;14241;49.260;10.496;2022-09-03T03:08:07;2.25;;;1.67;;
26600;SDS011;14241;49.260;10.496;2022-09-03T03:10:33;4.60;;;1.40;;
26600;SDS011;14241;49.260;10.496;2022-09-03T03:12:59;4.22;;;1.40;;
26600;SDS011;14241;49.260;10.496;2022-09-03T03:15:25;2.55;;;1.52;;
26600;SDS011;14241;49.260;10.496;2022-09-03T03:17:50;2.40;;;1.50;;
26600;SDS011;14241;49.260;10.496;2022-09-03T03:20:15;1.52;;;1.23;;
26600;SDS011;14241;49.260;10.496;2022-09-03T03:22:40;1.58;;;1.33;;
26600;SDS011;14241;49.260;10.496;2022-09-03T03:25:06;1.90;;;1.23;;
26600;SDS011;14241;49.260;10.496;2022-09-03T03:27:31;2.67;;;1.20;;
26600;SDS011;14241;49.260;10.496;2022-09-03T03:29:56;1.55;;;1.30;;
26600;SDS011;14241;49.260;10.496;2022-09-03T03:32:22;1.98;;;1.17;;
26600;SDS011;14241;49.260;10.496;2022-09-03T03:34:47;3.42;;;1.30;;
26600;SDS011;14241;49.260;10.496;2022-09-03T03:37:13;1.15;;;1.05;;
26600;SDS011;14241;49.260;10.496;2022-09-03T03:39:38;3.92;;;1.17;;
26600;SDS011;14241;49.260;10.496;2022-09-03T03:42:04;3.70;;;1.60;;
26600;SDS011;14241;49.260;10.496;2022-09-03T03:44:29;2.67;;;1.55;;
26600;SDS011;14241;49.260;10.496;2022-09-03T03:46:54;2.72;;;1.25;;
26600;SDS011;14241;49.260;10.496;2022-09-03T03:49:20;1.50;;;1.20;;
26600;SDS011;14241;49.260;10.496;2022-09-03T03:51:45;2.42;;;1.40;;
26600;SDS011;14241;49.260;10.496;2022-09-03T03:54:10;2.05;;;1.40;;
26600;SDS011;14241;49.260;10.496;2022-09-03T03:56:35;2.60;;;1.50;;
26600;SDS011;14241;49.260;10.496;2022-09-03T03:59:01;2.38;;;1.45;;
26600;SDS011;14241;49.260;10.496;2022-09-03T04:01:27;2.17;;;1.10;;
26600;SDS011;14241;49.260;10.496;2022-09-03T04:03:56;1.98;;;1.30;;
26600;SDS011;14241;49.260;10.496;2022-09-03T04:06:21;1.92;;;1.40;;
26600;SDS011;14241;49.260;10.496;2022-09-03T04:08:47;1.67;;;1.17;;
26600;SDS011;14241;49.260;10.496;2022-09-03T04:11:14;1.58;;;1.15;;
26600;SDS011;14241;49.260;10.496;2022-09-03T04:13:41;1.55;;;1.10;;
26600;SDS011;14241;49.260;10.496;2022-09-03T04:16:07;3.00;;;1.50;;
26600;SDS011;14241;49.260;10.496;2022-09-03T04:18:33;4.20;;;1.30;;
26600;SDS011;14241;49.260;10.496;2022-09-03T04:21:03;4.78;;;1.10;;
26600;SDS011;14241;49.260;10.496;2022-09-03T04:23:33;1.70;;;1.30;;
26600;SDS011;14241;49.260;10.496;2022-09-03T04:25:59;2.38;;;1.25;;
26600;SDS011;14241;49.260;10.496;2022-09-03T04:28:24;3.35;;;1.40;;
26600;SDS011;14241;49.260;10.496;2022-09-03T04:30:50;3.33;;;1.20;;
26600;SDS011;14241;49.260;10.496;2022-09-03T04:33:15;2.80;;;1.30;;
26600;SDS011;14241;49.260;10.496;2022-09-03T04:35:42;3.92;;;1.20;;
26600;SDS011;14241;49.260;10.496;2022-09-03T04:38:08;2.55;;;1.38;;
26600;SDS011;14241;49.260;10.496;2022-09-03T04:40:34;2.17;;;1.15;;
26600;SDS011;14241;49.260;10.496;2022-09-03T04:42:59;2.90;;;1.48;;
26600;SDS011;14241;49.260;10.496;2022-09-03T04:45:25;3.47;;;1.30;;
26600;SDS011;14241;49.260;10.496;2022-09-03T04:47:57;2.90;;;1.15;;
26600;SDS011;14241;49.260;10.496;2022-09-03T04:50:22;5.93;;;1.20;;
26600;SDS011;14241;49.260;10.496;2022-09-03T04:52:48;2.45;;;1.20;;
26600;SDS011;14241;49.260;10.496;2022-09-03T04:55:13;2.13;;;1.60;;
26600;SDS011;14241;49.260;10.496;2022-09-03T04:57:39;2.63;;;1.20;;
26600;SDS011;14241;49.260;10.496;2022-09-03T05:00:07;1.10;;;1.00;;
26600;SDS011;14241;49.260;10.496;2022-09-03T05:02:35;2.13;;;1.20;;
26600;SDS011;14241;49.260;10.496;2022-09-03T05:05:00;1.67;;;1.33;;
26600;SDS011;14241;49.260;10.496;2022-09-03T05:07:25;1.55;;;1.20;;
26600;SDS011;14241;49.260;10.496;2022-09-03T05:09:52;2.05;;;1.10;;
26600;SDS011;14241;49.260;10.496;2022-09-03T05:12:17;1.25;;;1.10;;
26600;SDS011;14241;49.260;10.496;2022-09-03T05:14:43;7.15;;;1.60;;
26600;SDS011;14241;49.260;10.496;2022-09-03T05:17:08;2.03;;;1.40;;
26600;SDS011;14241;49.260;10.496;2022-09-03T05:19:33;2.90;;;1.58;;
26600;SDS011;14241;49.260;10.496;2022-09-03T05:21:58;4.13;;;1.40;;
26600;SDS011;14241;49.260;10.496;2022-09-03T05:24:24;1.85;;;1.08;;
26600;SDS011;14241;49.260;10.496;2022-09-03T05:26:49;2.80;;;1.30;;
26600;SDS011;14241;49.260;10.496;2022-09-03T05:29:14;1.58;;;1.08;;
26600;SDS011;14241;49.260;10.496;2022-09-03T05:31:40;2.70;;;1.42;;
26600;SDS011;14241;49.260;10.496;2022-09-03T05:34:05;1.80;;;1.13;;
26600;SDS011;14241;49.260;10.496;2022-09-03T05:36:32;2.03;;;1.65;;
26600;SDS011;14241;49.260;10.496;2022-09-03T05:38:58;4.10;;;1.20;;
26600;SDS011;14241;49.260;10.496;2022-09-03T05:41:24;1.30;;;1.20;;
26600;SDS011;14241;49.260;10.496;2022-09-03T05:43:51;2.60;;;1.10;;
26600;SDS011;14241;49.260;10.496;2022-09-03T05:46:20;2.85;;;1.40;;
26600;SDS011;14241;49.260;10.496;2022-09-03T05:48:47;3.25;;;1.35;;
26600;SDS011;14241;49.260;10.496;2022-09-03T05:51:13;3.13;;;1.27;;
26600;SDS011;14241;49.260;10.496;2022-09-03T05:53:40;3.60;;;1.30;;
26600;SDS011;14241;49.260;10.496;2022-09-03T05:56:07;2.40;;;1.52;;
26600;SDS011;14241;49.260;10.496;2022-09-03T05:58:41;2.60;;;1.25;;
26600;SDS011;14241;49.260;10.496;2022-09-03T06:03:46;6.20;;;1.50;;
26600;SDS011;14241;49.260;10.496;2022-09-03T06:06:11;4.88;;;1.20;;
26600;SDS011;14241;49.260;10.496;2022-09-03T06:08:38;3.65;;;1.42;;
26600;SDS011;14241;49.260;10.496;2022-09-03T06:11:03;2.22;;;1.30;;
26600;SDS011;14241;49.260;10.496;2022-09-03T06:13:30;1.88;;;1.42;;
26600;SDS011;14241;49.260;10.496;2022-09-03T06:15:55;2.13;;;1.42;;
26600;SDS011;14241;49.260;10.496;2022-09-03T06:18:21;2.83;;;1.50;;
26600;SDS011;14241;49.260;10.496;2022-09-03T06:20:52;1.48;;;1.38;;
26600;SDS011;14241;49.260;10.496;2022-09-03T06:23:18;1.83;;;1.08;;
26600;SDS011;14241;49.260;10.496;2022-09-03T06:25:44;2.30;;;1.38;;
26600;SDS011;14241;49.260;10.496;2022-09-03T06:28:09;1.38;;;1.27;;
26600;SDS011;14241;49.260;10.496;2022-09-03T06:30:34;1.47;;;1.10;;
26600;SDS011;14241;49.260;10.496;2022-09-03T06:33:00;1.33;;;1.03;;
26600;SDS011;14241;49.260;10.496;2022-09-03T06:35:25;2.17;;;1.17;;
26600;SDS011;14241;49.260;10.496;2022-09-03T06:37:50;1.83;;;0.97;;
26600;SDS011;14241;49.260;10.496;2022-09-03T06:40:16;1.23;;;0.90;;
26600;SDS011;14241;49.260;10.496;2022-09-03T06:42:54;3.47;;;1.15;;
26600;SDS011;14241;49.260;10.496;2022-09-03T06:45:19;1.98;;;1.27;;
26600;SDS011;14241;49.260;10.496;2022-09-03T06:47:45;1.53;;;1.03;;
26600;SDS011;14241;49.260;10.496;2022-09-03T06:50:10;3.03;;;1.27;;
26600;SDS011;14241;49.260;10.496;2022-09-03T06:52:35;4.45;;;1.20;;
26600;SDS011;14241;49.260;10.496;2022-09-03T06:55:01;2.80;;;1.03;;
26600;SDS011;14241;49.260;10.496;2022-09-03T06:57:26;2.42;;;1.42;;
26600;SDS011;14241;49.260;10.496;2022-09-03T06:59:52;3.05;;;1.27;;
26600;SDS011;14241;49.260;10.496;2022-09-03T07:02:19;2.65;;;1.30;;
26600;SDS011;14241;49.260;10.496;2022-09-03T07:04:46;3.83;;;1.10;;
26600;SDS011;14241;49.260;10.496;2022-09-03T07:07:13;1.20;;;1.10;;
26600;SDS011;14241;49.260;10.496;2022-09-03T07:09:40;2.10;;;1.30;;
26600;SDS011;14241;49.260;10.496;2022-09-03T07:12:05;2.63;;;1.30;;
26600;SDS011;14241;49.260;10.496;2022-09-03T07:14:30;2.85;;;1.38;;
26600;SDS011;14241;49.260;10.496;2022-09-03T07:16:56;4.40;;;1.53;;
26600;SDS011;14241;49.260;10.496;2022-09-03T07:19:21;2.67;;;1.30;;
26600;SDS011;14241;49.260;10.496;2022-09-03T07:21:46;2.80;;;1.50;;
26600;SDS011;14241;49.260;10.496;2022-09-03T07:24:11;3.27;;;1.40;;
26600;SDS011;14241;49.260;10.496;2022-09-03T07:26:38;3.93;;;1.60;;
26600;SDS011;14241;49.260;10.496;2022-09-03T07:29:04;1.83;;;1.20;;
26600;SDS011;14241;49.260;10.496;2022-09-03T07:31:33;3.28;;;1.60;;
26600;SDS011;14241;49.260;10.496;2022-09-03T07:34:00;3.38;;;1.50;;
26600;SDS011;14241;49.260;10.496;2022-09-03T07:36:26;4.43;;;1.42;;
26600;SDS011;14241;49.260;10.496;2022-09-03T07:38:56;4.70;;;1.48;;
26600;SDS011;14241;49.260;10.496;2022-09-03T07:41:22;2.50;;;1.60;;
26600;SDS011;14241;49.260;10.496;2022-09-03T07:43:49;3.47;;;1.60;;
26600;SDS011;14241;49.260;10.496;2022-09-03T07:46:18;2.97;;;1.40;;
26600;SDS011;14241;49.260;10.496;2022-09-03T07:48:46;3.00;;;1.20;;
26600;SDS011;14241;49.260;10.496;2022-09-03T07:51:13;3.20;;;1.45;;
26600;SDS011;14241;49.260;10.496;2022-09-03T07:53:38;2.03;;;1.35;;
26600;SDS011;14241;49.260;10.496;2022-09-03T07:56:04;2.47;;;1.50;;
26600;SDS011;14241;49.260;10.496;2022-09-03T07:58:30;2.47;;;1.30;;
26600;SDS011;14241;49.260;10.496;2022-09-03T08:00:56;5.45;;;1.50;;
26600;SDS011;14241;49.260;10.496;2022-09-03T08:03:22;2.50;;;1.48;;
26600;SDS011;14241;49.260;10.496;2022-09-03T08:05:48;3.17;;;1.23;;
26600;SDS011;14241;49.260;10.496;2022-09-03T08:08:13;2.13;;;1.50;;
26600;SDS011;14241;49.260;10.496;2022-09-03T08:10:39;3.60;;;1.30;;
26600;SDS011;14241;49.260;10.496;2022-09-03T08:13:05;2.80;;;1.50;;
26600;SDS011;14241;49.260;10.496;2022-09-03T08:15:30;2.00;;;1.30;;
26600;SDS011;14241;49.260;10.496;2022-09-03T08:17:56;2.10;;;1.23;;
26600;SDS011;14241;49.260;10.496;2022-09-03T08:20:21;2.93;;;1.40;;
26600;SDS011;14241;49.260;10.496;2022-09-03T08:22:47;2.83;;;1.30;;
26600;SDS011;14241;49.260;10.496;2022-09-03T08:25:12;3.58;;;1.08;;
26600;SDS011;14241;49.260;10.496;2022-09-03T08:27:38;5.80;;;1.33;;
26600;SDS011;14241;49.260;10.496;2022-09-03T08:30:03;1.63;;;1.50;;
26600;SDS011;14241;49.260;10.496;2022-09-03T08:32:29;1.45;;;1.25;;
26600;SDS011;14241;49.260;10.496;2022-09-03T08:34:54;3.28;;;1.42;;
26600;SDS011;14241;49.260;10.496;2022-09-03T08:37:19;3.53;;;1.25;;
26600;SDS011;14241;49.260;10.496;2022-09-03T08:39:44;3.80;;;1.58;;
26600;SDS011;14241;49.260;10.496;2022-09-03T08:44:47;3.33;;;1.63;;
26600;SDS011;14241;49.260;10.496;2022-09-03T08:47:33;4.90;;;1.52;;
26600;SDS011;14241;49.260;10.496;2022-09-03T08:55:07;1.83;;;1.40;;
26600;SDS011;14241;49.260;10.496;2022-09-03T08:57:39;2.88;;;1.48;;
26600;SDS011;14241;49.260;10.496;2022-09-03T09:00:06;4.35;;;1.70;;
26600;SDS011;14241;49.260;10.496;2022-09-03T09:08:47;3.20;;;1.63;;
26600;SDS011;14241;49.260;10.496;2022-09-03T09:11:03;3.35;;;1.83;;
26600;SDS011;14241;49.260;10.496;2022-09-03T09:13:47;2.67;;;2.00;;
26600;SDS011;14241;49.260;10.496;2022-09-03T09:16:24;2.80;;;1.90;;
26600;SDS011;14241;49.260;10.496;2022-09-03T09:21:22;1.93;;;1.73;;
26600;SDS011;14241;49.260;10.496;2022-09-03T09:23:50;6.20;;;2.13;;
26600;SDS011;14241;49.260;10.496;2022-09-03T09:26:16;3.75;;;1.30;;
26600;SDS011;14241;49.260;10.496;2022-09-03T09:28:42;3.00;;;1.70;;
26600;SDS011;14241;49.260;10.496;2022-09-03T09:31:10;3.65;;;1.75;;
26600;SDS011;14241;49.260;10.496;2022-09-03T09:33:39;1.58;;;1.45;;
26600;SDS011;14241;49.260;10.496;2022-09-03T09:36:05;4.35;;;1.70;;
26600;SDS011;14241;49.260;10.496;2022-09-03T09:38:33;2.35;;;1.23;;
26600;SDS011;14241;49.260;10.496;2022-09-03T09:41:33;2.08;;;1.58;;
26600;SDS011;14241;49.260;10.496;2022-09-03T09:44:00;5.70;;;1.60;;
26600;SDS011;14241;49.260;10.496;2022-09-03T09:46:31;2.35;;;1.98;;
26600;SDS011;14241;49.260;10.496;2022-09-03T09:48:58;3.35;;;1.98;;
26600;SDS011;14241;49.260;10.496;2022-09-03T09:51:27;4.03;;;1.90;;
26600;SDS011;14241;49.260;10.496;2022-09-03T09:56:26;1.98;;;1.60;;
26600;SDS011;14241;49.260;10.496;2022-09-03T09:59:01;4.68;;;1.88;;
26600;SDS011;14241;49.260;10.496;2022-09-03T10:01:27;7.25;;;2.20;;
26600;SDS011;14241;49.260;10.496;2022-09-03T10:03:58;4.32;;;1.63;;
26600;SDS011;14241;49.260;10.496;2022-09-03T10:06:25;2.53;;;2.13;;
26600;SDS011;14241;49.260;10.496;2022-09-03T10:09:10;3.50;;;2.17;;
26600;SDS011;14241;49.260;10.496;2022-09-03T10:11:38;2.55;;;1.85;;
26600;SDS011;14241;49.260;10.496;2022-09-03T10:14:07;4.18;;;2.05;;
26600;SDS011;14241;49.260;10.496;2022-09-03T10:16:34;3.38;;;2.00;;
26600;SDS011;14241;49.260;10.496;2022-09-03T10:19:12;4.20;;;2.00;;
26600;SDS011;14241;49.260;10.496;2022-09-03T10:26:55;3.47;;;1.98;;
26600;SDS011;14241;49.260;10.496;2022-09-03T10:29:24;4.28;;;2.17;;
26600;SDS011;14241;49.260;10.496;2022-09-03T10:42:59;2.13;;;1.93;;
26600;SDS011;14241;49.260;10.496;2022-09-03T10:45:30;4.45;;;2.10;;
26600;SDS011;14241;49.260;10.496;2022-09-03T10:50:33;9.40;;;2.97;;
26600;SDS011;14241;49.260;10.496;2022-09-03T11:00:23;5.80;;;2.50;;
26600;SDS011;14241;49.260;10.496;2022-09-03T11:08:10;4.45;;;2.65;;
26600;SDS011;14241;49.260;10.496;2022-09-03T11:10:41;3.75;;;2.78;;
26600;SDS011;14241;49.260;10.496;2022-09-03T11:13:08;2.85;;;2.10;;
26600;SDS011;14241;49.260;10.496;2022-09-03T11:15:36;3.17;;;2.65;;
26600;SDS011;14241;49.260;10.496;2022-09-03T11:20:32;2.67;;;2.45;;
26600;SDS011;14241;49.260;10.496;2022-09-03T11:23:02;2.78;;;2.25;;
26600;SDS011;14241;49.260;10.496;2022-09-03T11:25:33;2.95;;;2.40;;
26600;SDS011;14241;49.260;10.496;2022-09-03T11:33:06;2.72;;;2.15;;
26600;SDS011;14241;49.260;10.496;2022-09-03T11:40:33;3.07;;;2.40;;
26600;SDS011;14241;49.260;10.496;2022-09-03T11:43:06;4.40;;;2.70;;
26600;SDS011;14241;49.260;10.496;2022-09-03T11:47:56;3.10;;;2.10;;
26600;SDS011;14241;49.260;10.496;2022-09-03T11:50:29;4.75;;;2.55;;
26600;SDS011;14241;49.260;10.496;2022-09-03T11:58:33;3.63;;;2.00;;
26600;SDS011;14241;49.260;10.496;2022-09-03T12:01:00;5.90;;;2.20;;
26600;SDS011;14241;49.260;10.496;2022-09-03T12:03:26;3.13;;;1.98;;
26600;SDS011;14241;49.260;10.496;2022-09-03T12:19:03;4.10;;;2.50;;
26600;SDS011;14241;49.260;10.496;2022-09-03T12:21:36;4.95;;;2.47;;
26600;SDS011;14241;49.260;10.496;2022-09-03T12:24:01;3.92;;;2.97;;
26600;SDS011;14241;49.260;10.496;2022-09-03T12:26:27;2.78;;;2.20;;
26600;SDS011;14241;49.260;10.496;2022-09-03T12:28:54;4.47;;;2.00;;
26600;SDS011;14241;49.260;10.496;2022-09-03T12:31:21;3.15;;;1.95;;
26600;SDS011;14241;49.260;10.496;2022-09-03T12:33:52;7.55;;;2.72;;
26600;SDS011;14241;49.260;10.496;2022-09-03T12:36:19;4.90;;;2.80;;
26600;SDS011;14241;49.260;10.496;2022-09-03T12:38:44;3.83;;;2.20;;
26600;SDS011;14241;49.260;10.496;2022-09-03T12:41:19;3.63;;;2.40;;
26600;SDS011;14241;49.260;10.496;2022-09-03T12:43:49;2.63;;;2.25;;
26600;SDS011;14241;49.260;10.496;2022-09-03T12:46:15;4.82;;;2.75;;
26600;SDS011;14241;49.260;10.496;2022-09-03T12:49:02;8.23;;;2.83;;
26600;SDS011;14241;49.260;10.496;2022-09-03T12:51:39;4.03;;;2.40;;
26600;SDS011;14241;49.260;10.496;2022-09-03T12:54:05;2.28;;;2.05;;
26600;SDS011;14241;49.260;10.496;2022-09-03T12:56:31;3.95;;;2.40;;
26600;SDS011;14241;49.260;10.496;2022-09-03T12:59:06;4.85;;;2.08;;
26600;SDS011;14241;49.260;10.496;2022-09-03T13:01:39;3.85;;;2.80;;
26600;SDS011;14241;49.260;10.496;2022-09-03T13:04:08;5.18;;;2.70;;
26600;SDS011;14241;49.260;10.496;2022-09-03T13:09:25;7.68;;;2.65;;
26600;SDS011;14241;49.260;10.496;2022-09-03T13:11:54;8.80;;;2.40;;
26600;SDS011;14241;49.260;10.496;2022-09-03T13:14:20;3.92;;;2.50;;
26600;SDS011;14241;49.260;10.496;2022-09-03T13:19:20;5.90;;;2.27;;
26600;SDS011;14241;49.260;10.496;2022-09-03T13:21:49;6.50;;;2.90;;
26600;SDS011;14241;49.260;10.496;2022-09-03T13:27:28;4.20;;;2.30;;
26600;SDS011;14241;49.260;10.496;2022-09-03T13:32:28;5.27;;;2.77;;
26600;SDS011;14241;49.260;10.496;2022-09-03T13:34:58;4.50;;;2.50;;
26600;SDS011;14241;49.260;10.496;2022-09-03T13:37:27;3.08;;;2.30;;
26600;SDS011;14241;49.260;10.496;2022-09-03T13:40:02;4.72;;;2.22;;
26600;SDS011;14241;49.260;10.496;2022-09-03T13:42:34;3.85;;;2.17;;
26600;SDS011;14241;49.260;10.496;2022-09-03T13:47:42;2.38;;;2.08;;
26600;SDS011;14241;49.260;10.496;2022-09-03T13:50:30;3.03;;;1.98;;
26600;SDS011;14241;49.260;10.496;2022-09-03T13:58:07;7.43;;;2.85;;
26600;SDS011;14241;49.260;10.496;2022-09-03T14:00:42;3.17;;;2.17;;
26600;SDS011;14241;49.260;10.496;2022-09-03T14:10:59;6.53;;;3.05;;
26600;SDS011;14241;49.260;10.496;2022-09-03T14:18:43;6.45;;;2.92;;
26600;SDS011;14241;49.260;10.496;2022-09-03T14:26:47;10.80;;;3.10;;
26600;SDS011;14241;49.260;10.496;2022-09-03T14:29:14;3.30;;;2.65;;
26600;SDS011;14241;49.260;10.496;2022-09-03T14:34:17;8.45;;;3.30;;
26600;SDS011;14241;49.260;10.496;2022-09-03T14:52:56;3.90;;;0.82;;
26600;SDS011;14241;49.260;10.496;2022-09-03T14:55:34;2.83;;;0.68;;
26600;SDS011;14241;49.260;10.496;2022-09-03T14:58:07;0.70;;;0.60;;
26600;SDS011;14241;49.260;10.496;2022-09-03T15:10:58;1.52;;;0.70;;
26600;SDS011;14241;49.260;10.496;2022-09-03T15:28:49;2.43;;;0.70;;
26600;SDS011;14241;49.260;10.496;2022-09-03T15:31:28;3.03;;;0.80;;
26600;SDS011;14241;49.260;10.496;2022-09-03T15:34:00;0.70;;;0.40;;
26600;SDS011;14241;49.260;10.496;2022-09-03T15:36:33;2.05;;;0.85;;
26600;SDS011;14241;49.260;10.496;2022-09-03T15:39:01;2.58;;;0.75;;
26600;SDS011;14241;49.260;10.496;2022-09-03T15:41:34;1.33;;;0.77;;
26600;SDS011;14241;49.260;10.496;2022-09-03T15:44:05;5.93;;;0.88;;
26600;SDS011;14241;49.260;10.496;2022-09-03T15:49:17;2.03;;;0.77;;
26600;SDS011;14241;49.260;10.496;2022-09-03T15:54:29;4.43;;;0.60;;
26600;SDS011;14241;49.260;10.496;2022-09-03T15:57:08;1.38;;;0.63;;
26600;SDS011;14241;49.260;10.496;2022-09-03T16:02:22;1.27;;;0.50;;
26600;SDS011;14241;49.260;10.496;2022-09-03T16:07:28;2.03;;;0.75;;
26600;SDS011;14241;49.260;10.496;2022-09-03T16:10:18;1.35;;;0.60;;
26600;SDS011;14241;49.260;10.496;2022-09-03T16:12:47;1.42;;;0.63;;
26600;SDS011;14241;49.260;10.496;2022-09-03T16:15:21;2.25;;;1.00;;
26600;SDS011;14241;49.260;10.496;2022-09-03T16:17:53;1.02;;;0.85;;
26600;SDS011;14241;49.260;10.496;2022-09-03T16:20:20;1.00;;;0.40;;
26600;SDS011;14241;49.260;10.496;2022-09-03T16:23:49;1.10;;;0.50;;
26600;SDS011;14241;49.260;10.496;2022-09-03T16:28:11;0.88;;;0.47;;
26600;SDS011;14241;49.260;10.496;2022-09-03T16:33:14;1.88;;;0.98;;
26600;SDS011;14241;49.260;10.496;2022-09-03T16:36:05;0.70;;;0.60;;
26600;SDS011;14241;49.260;10.496;2022-09-03T16:41:18;3.83;;;0.80;;
26600;SDS011;14241;49.260;10.496;2022-09-03T16:46:41;2.55;;;0.95;;
26600;SDS011;14241;49.260;10.496;2022-09-03T17:12:32;1.35;;;0.50;;
26600;SDS011;14241;49.260;10.496;2022-09-03T17:17:35;1.17;;;0.93;;
26600;SDS011;14241;49.260;10.496;2022-09-03T17:20:10;1.63;;;0.82;;
26600;SDS011;14241;49.260;10.496;2022-09-03T17:22:55;2.05;;;0.75;;
26600;SDS011;14241;49.260;10.496;2022-09-03T17:35:35;2.08;;;0.80;;
26600;SDS011;14241;49.260;10.496;2022-09-03T17:38:23;1.33;;;0.90;;
26600;SDS011;14241;49.260;10.496;2022-09-03T17:44:20;3.28;;;1.02;;
26600;SDS011;14241;49.260;10.496;2022-09-03T17:46:30;1.67;;;0.90;;
26600;SDS011;14241;49.260;10.496;2022-09-03T17:49:01;1.30;;;0.90;;
26600;SDS011;14241;49.260;10.496;2022-09-03T17:56:59;2.75;;;1.13;;
26600;SDS011;14241;49.260;10.496;2022-09-03T18:01:54;1.15;;;1.05;;
26600;SDS011;14241;49.260;10.496;2022-09-03T18:04:36;2.03;;;1.30;;
26600;SDS011;14241;49.260;10.496;2022-09-03T18:12:26;2.00;;;1.10;;
26600;SDS011;14241;49.260;10.496;2022-09-03T18:15:05;4.03;;;1.10;;
26600;SDS011;14241;49.260;10.496;2022-09-03T18:20:08;3.63;;;1.10;;
26600;SDS011;14241;49.260;10.496;2022-09-03T18:22:55;2.80;;;1.15;;
26600;SDS011;14241;49.260;10.496;2022-09-03T18:25:41;2.17;;;1.05;;
26600;SDS011;14241;49.260;10.496;2022-09-03T18:29:01;1.13;;;1.00;;
26600;SDS011;14241;49.260;10.496;2022-09-03T18:31:37;2.25;;;0.73;;
26600;SDS011;14241;49.260;10.496;2022-09-03T18:34:28;1.98;;;1.00;;
26600;SDS011;14241;49.260;10.496;2022-09-03T18:37:14;1.13;;;1.00;;
26600;SDS011;14241;49.260;10.496;2022-09-03T18:39:58;2.20;;;0.80;;
26600;SDS011;14241;49.260;10.496;2022-09-03T18:46:09;3.55;;;0.90;;
26600;SDS011;14241;49.260;10.496;2022-09-03T19:00:58;1.80;;;1.20;;
26600;SDS011;14241;49.260;10.496;2022-09-03T19:06:34;2.35;;;1.38;;
26600;SDS011;14241;49.260;10.496;2022-09-03T19:20:28;3.25;;;1.80;;
26600;SDS011;14241;49.260;10.496;2022-09-03T19:23:13;3.38;;;1.45;;
26600;SDS011;14241;49.260;10.496;2022-09-03T19:25:59;2.85;;;1.58;;
26600;SDS011;14241;49.260;10.496;2022-09-03T19:28:45;1.75;;;1.40;;
26600;SDS011;14241;49.260;10.496;2022-09-03T19:45:51;2.25;;;1.60;;
26600;SDS011;14241;49.260;10.496;2022-09-03T19:51:44;2.20;;;1.77;;
26600;SDS011;14241;49.260;10.496;2022-09-03T19:54:29;3.83;;;1.80;;
26600;SDS011;14241;49.260;10.496;2022-09-03T19:57:15;3.10;;;1.88;;
26600;SDS011;14241;49.260;10.496;2022-09-03T19:59:59;2.17;;;1.60;;
26600;SDS011;14241;49.260;10.496;2022-09-03T20:02:45;3.08;;;1.60;;
26600;SDS011;14241;49.260;10.496;2022-09-03T20:05:29;2.45;;;2.00;;
26600;SDS011;14241;49.260;10.496;2022-09-03T20:08:14;2.90;;;1.80;;
26600;SDS011;14241;49.260;10.496;2022-09-03T20:10:59;2.20;;;1.75;;
26600;SDS011;14241;49.260;10.496;2022-09-03T20:13:25;4.55;;;1.70;;
26600;SDS011;14241;49.260;10.496;2022-09-03T20:18:23;3.38;;;1.48;;
26600;SDS011;14241;49.260;10.496;2022-09-03T20:21:03;3.60;;;1.98;;
26600;SDS011;14241;49.260;10.496;2022-09-03T20:23:33;2.70;;;1.85;;
26600;SDS011;14241;49.260;10.496;2022-09-03T20:28:58;3.25;;;1.90;;
26600;SDS011;14241;49.260;10.496;2022-09-03T20:34:26;2.60;;;1.90;;
26600;SDS011;14241;49.260;10.496;2022-09-03T20:36:55;3.97;;;2.17;;
26600;SDS011;14241;49.260;10.496;2022-09-03T20:47:28;2.40;;;2.05;;
26600;SDS011;14241;49.260;10.496;2022-09-03T20:55:32;3.15;;;2.60;;